createdAt,value
2018-07-01T00:03:07.612Z,15.60
2018-07-01T00:05:37.080Z,15.60
2018-07-01T00:08:06.174Z,15.60
2018-07-01T00:10:35.372Z,15.50
2018-07-01T00:13:04.657Z,15.50
2018-07-01T00:15:34.276Z,15.40
2018-07-01T00:18:03.483Z,15.40
2018-07-01T00:20:32.666Z,15.40
2018-07-01T00:23:01.845Z,15.40
2018-07-01T00:25:30.954Z,15.30
2018-07-01T00:28:00.091Z,15.30
2018-07-01T00:30:29.359Z,15.30
2018-07-01T00:32:58.443Z,15.30
2018-07-01T00:35:27.576Z,15.20
2018-07-01T00:40:26.689Z,15.20
2018-07-01T00:42:55.874Z,15.10
2018-07-01T00:45:25.066Z,15.10
2018-07-01T00:47:54.170Z,15.10
2018-07-01T00:50:23.554Z,15.10
2018-07-01T00:52:52.858Z,15.00
2018-07-01T00:55:21.928Z,15.00
2018-07-01T00:57:51.113Z,15.00
2018-07-01T01:00:25.615Z,15.00
2018-07-01T01:02:54.786Z,14.90
2018-07-01T01:05:24.165Z,14.90
2018-07-01T01:07:53.403Z,14.90
2018-07-01T01:10:22.800Z,14.90
2018-07-01T01:12:52.196Z,14.80
2018-07-01T01:15:21.317Z,14.80
2018-07-01T01:17:50.420Z,14.80
2018-07-01T01:20:19.696Z,14.80
2018-07-01T01:22:48.839Z,14.80
2018-07-01T01:25:17.974Z,14.80
2018-07-01T01:30:15.804Z,14.70
2018-07-01T01:32:45.095Z,14.70
2018-07-01T01:35:14.427Z,14.70
2018-07-01T01:37:43.716Z,14.60
2018-07-01T01:40:13.976Z,14.60
2018-07-01T01:45:22.070Z,14.60
2018-07-01T01:48:02.299Z,14.50
2018-07-01T01:53:14.828Z,14.50
2018-07-01T01:55:52.100Z,14.50
2018-07-01T01:58:31.894Z,14.40
2018-07-01T02:01:13.393Z,14.40
2018-07-01T02:03:46.867Z,14.40
2018-07-01T02:06:19.915Z,14.40
2018-07-01T02:08:53.339Z,14.30
2018-07-01T02:11:22.873Z,14.30
2018-07-01T02:13:55.076Z,14.30
2018-07-01T02:16:28.723Z,14.30
2018-07-01T02:21:27.011Z,14.30
2018-07-01T02:24:01.491Z,14.30
2018-07-01T02:26:31.373Z,14.20
2018-07-01T02:29:00.979Z,14.20
2018-07-01T02:31:30.128Z,14.10
2018-07-01T02:33:59.214Z,14.10
2018-07-01T02:36:28.387Z,14.10
2018-07-01T02:38:57.503Z,14.00
2018-07-01T02:41:26.680Z,14.00
2018-07-01T02:43:56.003Z,13.90
2018-07-01T02:46:25.316Z,13.90
2018-07-01T02:48:54.492Z,13.90
2018-07-01T02:51:23.623Z,13.80
2018-07-01T02:53:52.824Z,13.80
2018-07-01T02:58:50.700Z,13.80
2018-07-01T03:01:19.902Z,13.80
2018-07-01T03:03:49.062Z,13.70
2018-07-01T03:06:18.520Z,13.70
2018-07-01T03:08:47.927Z,13.70
2018-07-01T03:11:17.290Z,13.60
2018-07-01T03:13:46.907Z,13.60
2018-07-01T03:16:16.060Z,13.60
2018-07-01T03:21:13.882Z,13.60
2018-07-01T03:23:42.988Z,13.50
2018-07-01T03:26:13.023Z,13.50
2018-07-01T03:31:11.337Z,13.50
2018-07-01T03:33:40.435Z,13.50
2018-07-01T03:36:10.020Z,13.50
2018-07-01T03:38:39.135Z,13.50
2018-07-01T03:41:08.223Z,13.50
2018-07-01T03:43:37.579Z,13.50
2018-07-01T03:51:04.102Z,13.60
2018-07-01T03:53:33.268Z,13.60
2018-07-01T03:56:02.403Z,13.60
2018-07-01T03:58:31.726Z,13.60
2018-07-01T04:01:01.087Z,13.60
2018-07-01T04:03:30.643Z,13.60
2018-07-01T04:06:00.112Z,13.60
2018-07-01T04:08:29.282Z,13.60
2018-07-01T04:10:58.383Z,13.70
2018-07-01T04:20:16.276Z,13.70
2018-07-01T04:27:42.843Z,13.70
2018-07-01T04:30:11.963Z,13.80
2018-07-01T04:32:41.056Z,13.80
2018-07-01T04:35:10.239Z,13.80
2018-07-01T04:37:39.345Z,13.90
2018-07-01T04:40:08.627Z,14.00
2018-07-01T04:42:37.835Z,14.10
2018-07-01T04:45:07.075Z,14.40
2018-07-01T04:47:36.351Z,15.80
2018-07-01T04:50:05.591Z,17.30
2018-07-01T04:52:34.672Z,18.70
2018-07-01T04:55:04.049Z,19.70
2018-07-01T04:57:33.147Z,20.90
2018-07-01T05:00:02.424Z,22.00
2018-07-01T05:02:31.845Z,22.70
2018-07-01T05:05:01.225Z,23.20
2018-07-01T05:07:30.750Z,23.50
2018-07-01T05:09:59.930Z,24.10
2018-07-01T05:12:29.035Z,24.80
2018-07-01T05:14:58.110Z,25.00
2018-07-01T05:17:28.071Z,25.10
2018-07-01T05:19:57.818Z,25.80
2018-07-01T05:22:26.980Z,26.00
2018-07-01T05:24:56.216Z,26.40
2018-07-01T05:27:25.500Z,25.80
2018-07-01T05:29:54.712Z,25.50
2018-07-01T05:32:24.184Z,26.00
2018-07-01T05:34:53.272Z,25.80
2018-07-01T05:39:51.085Z,26.30
2018-07-01T05:42:20.203Z,26.00
2018-07-01T05:44:49.347Z,26.00
2018-07-01T05:47:18.512Z,25.90
2018-07-01T05:49:47.735Z,25.60
2018-07-01T05:52:16.976Z,25.90
2018-07-01T05:54:46.172Z,26.20
2018-07-01T05:57:15.538Z,25.80
2018-07-01T05:59:44.711Z,26.40
2018-07-01T06:02:13.894Z,27.20
2018-07-01T06:04:43.709Z,26.90
2018-07-01T06:07:12.992Z,27.80
2018-07-01T06:09:42.111Z,29.00
2018-07-01T06:12:11.299Z,28.40
2018-07-01T06:14:40.539Z,28.20
2018-07-01T06:17:09.806Z,28.80
2018-07-01T06:22:07.748Z,30.60
2018-07-01T06:24:36.974Z,29.60
2018-07-01T06:27:06.228Z,29.20
2018-07-01T06:29:35.468Z,29.50
2018-07-01T06:32:04.787Z,30.40
2018-07-01T06:34:33.933Z,31.50
2018-07-01T06:37:03.251Z,32.10
2018-07-01T06:39:32.612Z,32.50
2018-07-01T06:42:01.837Z,32.70
2018-07-01T06:44:31.003Z,31.80
2018-07-01T06:47:00.407Z,30.60
2018-07-01T06:49:29.534Z,31.40
2018-07-01T06:51:58.714Z,30.80
2018-07-01T06:56:56.629Z,31.20
2018-07-01T07:01:54.708Z,32.20
2018-07-01T07:04:23.781Z,33.10
2018-07-01T07:06:52.940Z,33.70
2018-07-01T07:09:22.782Z,33.90
2018-07-01T07:11:51.968Z,33.60
2018-07-01T07:16:49.907Z,32.10
2018-07-01T07:19:18.987Z,31.60
2018-07-01T07:21:48.096Z,30.90
2018-07-01T07:24:17.214Z,30.40
2018-07-01T07:26:46.395Z,31.10
2018-07-01T07:31:44.349Z,30.20
2018-07-01T07:34:13.475Z,31.00
2018-07-01T07:36:42.671Z,31.30
2018-07-01T07:39:12.462Z,31.30
2018-07-01T07:41:42.115Z,30.10
2018-07-01T07:44:11.215Z,30.40
2018-07-01T07:46:40.311Z,31.50
2018-07-01T07:49:09.494Z,32.50
2018-07-01T07:51:38.643Z,33.00
2018-07-01T07:54:07.728Z,33.60
2018-07-01T07:56:36.944Z,33.00
2018-07-01T07:59:06.070Z,32.00
2018-07-01T08:01:35.196Z,30.80
2018-07-01T08:06:33.764Z,29.70
2018-07-01T08:09:02.953Z,29.80
2018-07-01T08:11:32.140Z,29.30
2018-07-01T08:14:01.306Z,27.50
2018-07-01T08:16:30.472Z,26.60
2018-07-01T08:18:59.588Z,25.20
2018-07-01T08:21:28.927Z,24.30
2018-07-01T08:23:58.641Z,23.80
2018-07-01T08:26:27.845Z,23.20
2018-07-01T08:28:56.999Z,23.10
2018-07-01T08:31:26.331Z,22.60
2018-07-01T08:33:55.527Z,22.60
2018-07-01T08:36:24.724Z,22.60
2018-07-01T08:38:53.972Z,22.50
2018-07-01T08:41:23.080Z,22.30
2018-07-01T08:43:52.540Z,22.30
2018-07-01T08:46:21.680Z,22.10
2018-07-01T08:48:50.868Z,22.10
2018-07-01T08:51:20.519Z,22.10
2018-07-01T08:53:49.747Z,22.00
2018-07-01T08:56:19.008Z,22.00
2018-07-01T09:01:17.278Z,21.60
2018-07-01T09:03:46.483Z,21.30
2018-07-01T09:06:15.710Z,21.20
2018-07-01T09:08:44.916Z,21.40
2018-07-01T09:11:14.247Z,21.70
2018-07-01T09:13:43.480Z,21.90
2018-07-01T09:16:12.681Z,21.90
2018-07-01T09:18:41.894Z,21.90
2018-07-01T09:21:11.215Z,21.70
2018-07-01T09:23:40.591Z,21.50
2018-07-01T09:28:38.784Z,21.50
2018-07-01T09:31:08.267Z,21.40
2018-07-01T09:33:37.484Z,21.60
2018-07-01T09:36:06.751Z,21.80
2018-07-01T09:38:35.939Z,22.00
2018-07-01T09:43:34.113Z,21.60
2018-07-01T09:46:03.567Z,21.70
2018-07-01T09:51:02.047Z,21.80
2018-07-01T09:53:31.224Z,21.70
2018-07-01T09:56:00.913Z,21.90
2018-07-01T09:58:30.350Z,22.00
2018-07-01T10:00:59.622Z,22.10
2018-07-01T10:03:28.968Z,22.10
2018-07-01T10:05:58.183Z,21.90
2018-07-01T10:08:27.412Z,21.90
2018-07-01T10:10:56.521Z,22.20
2018-07-01T10:13:25.675Z,22.40
2018-07-01T10:15:54.790Z,22.20
2018-07-01T10:18:23.959Z,22.50
2018-07-01T10:20:53.063Z,22.70
2018-07-01T10:23:22.207Z,22.90
2018-07-01T10:25:51.482Z,22.80
2018-07-01T10:28:20.683Z,22.80
2018-07-01T10:30:50.551Z,22.70
2018-07-01T10:33:19.643Z,22.60
2018-07-01T10:38:17.833Z,22.70
2018-07-01T10:40:46.954Z,22.60
2018-07-01T10:45:46.076Z,22.80
2018-07-01T10:48:15.266Z,22.90
2018-07-01T10:50:44.412Z,23.20
2018-07-01T10:55:42.408Z,23.50
2018-07-01T11:00:40.238Z,23.20
2018-07-01T11:03:09.383Z,23.20
2018-07-01T11:05:38.551Z,23.40
2018-07-01T11:08:07.804Z,23.50
2018-07-01T11:10:36.947Z,23.50
2018-07-01T11:15:35.213Z,23.40
2018-07-01T11:18:04.711Z,23.50
2018-07-01T11:20:34.074Z,23.50
2018-07-01T11:23:04.123Z,23.30
2018-07-01T11:28:01.983Z,23.30
2018-07-01T11:30:31.631Z,23.40
2018-07-01T11:33:01.485Z,23.10
2018-07-01T11:35:30.852Z,23.10
2018-07-01T11:38:00.143Z,23.20
2018-07-01T11:40:29.339Z,23.20
2018-07-01T11:42:58.453Z,23.30
2018-07-01T11:45:27.600Z,23.30
2018-07-01T11:50:25.759Z,23.50
2018-07-01T11:52:55.027Z,23.50
2018-07-01T11:55:24.247Z,23.30
2018-07-01T11:57:53.693Z,23.30
2018-07-01T12:00:23.011Z,23.50
2018-07-01T12:02:52.367Z,23.60
2018-07-01T12:05:21.631Z,23.80
2018-07-01T12:07:50.756Z,23.70
2018-07-01T12:10:19.875Z,23.80
2018-07-01T12:15:17.900Z,23.80
2018-07-01T12:17:47.243Z,23.90
2018-07-01T12:20:17.580Z,23.90
2018-07-01T12:22:46.886Z,24.20
2018-07-01T12:25:16.507Z,24.20
2018-07-01T12:27:45.907Z,24.40
2018-07-01T12:30:15.009Z,24.40
2018-07-01T12:32:44.097Z,24.20
2018-07-01T12:35:13.313Z,23.90
2018-07-01T12:40:11.284Z,24.10
2018-07-01T12:42:40.440Z,24.10
2018-07-01T12:45:09.690Z,23.90
2018-07-01T12:47:38.804Z,23.80
2018-07-01T12:50:08.171Z,23.80
2018-07-01T12:52:37.256Z,23.60
2018-07-01T12:55:06.415Z,23.70
2018-07-01T12:57:35.603Z,23.70
2018-07-01T13:00:05.730Z,23.60
2018-07-01T13:02:35.022Z,23.60
2018-07-01T13:07:32.937Z,23.80
2018-07-01T13:10:02.347Z,23.80
2018-07-01T13:12:31.781Z,23.80
2018-07-01T13:15:01.102Z,23.80
2018-07-01T13:17:30.236Z,23.80
2018-07-01T13:19:59.511Z,23.80
2018-07-01T13:22:28.703Z,24.10
2018-07-01T13:24:57.845Z,24.10
2018-07-01T13:27:26.979Z,24.10
2018-07-01T13:29:56.253Z,24.00
2018-07-01T13:37:23.014Z,23.70
2018-07-01T13:39:52.160Z,23.80
2018-07-01T13:42:21.280Z,23.90
2018-07-01T13:44:51.285Z,23.70
2018-07-01T13:49:49.150Z,23.60
2018-07-01T13:52:18.296Z,23.80
2018-07-01T13:54:48.409Z,23.90
2018-07-01T13:57:17.647Z,23.90
2018-07-01T13:59:46.800Z,23.80
2018-07-01T14:02:16.424Z,23.70
2018-07-01T14:04:45.519Z,23.80
2018-07-01T14:07:15.504Z,23.80
2018-07-01T14:09:44.634Z,23.60
2018-07-01T14:12:13.742Z,23.60
2018-07-01T14:14:42.900Z,23.60
2018-07-01T14:17:12.202Z,23.50
2018-07-01T14:19:41.424Z,23.50
2018-07-01T14:22:10.976Z,23.50
2018-07-01T14:24:40.276Z,23.60
2018-07-01T14:32:06.927Z,23.60
2018-07-01T14:34:36.043Z,23.50
2018-07-01T14:37:05.265Z,23.50
2018-07-01T14:39:34.471Z,23.50
2018-07-01T14:42:04.108Z,23.60
2018-07-01T14:44:33.478Z,23.70
2018-07-01T14:49:31.933Z,23.50
2018-07-01T14:52:01.100Z,23.50
2018-07-01T14:54:30.233Z,23.30
2018-07-01T14:56:59.547Z,23.20
2018-07-01T14:59:28.687Z,23.10
2018-07-01T15:01:57.854Z,23.30
2018-07-01T15:04:27.010Z,23.30
2018-07-01T15:06:56.187Z,23.20
2018-07-01T15:09:25.380Z,23.30
2018-07-01T15:11:54.557Z,23.20
2018-07-01T15:14:23.740Z,23.10
2018-07-01T15:16:53.702Z,23.10
2018-07-01T15:19:22.805Z,23.10
2018-07-01T15:21:51.907Z,23.20
2018-07-01T15:24:21.048Z,23.30
2018-07-01T15:26:50.137Z,23.20
2018-07-01T15:29:19.844Z,23.30
2018-07-01T15:31:49.018Z,23.20
2018-07-01T15:34:18.923Z,23.10
2018-07-01T15:36:48.067Z,23.20
2018-07-01T15:39:17.260Z,23.30
2018-07-01T15:41:46.356Z,23.20
2018-07-01T15:44:15.510Z,23.10
2018-07-01T15:46:44.618Z,23.20
2018-07-01T15:49:13.688Z,23.20
2018-07-01T15:51:42.863Z,23.30
2018-07-01T15:56:40.792Z,23.30
2018-07-01T15:59:09.937Z,23.10
2018-07-01T16:01:39.219Z,23.20
2018-07-01T16:04:08.379Z,23.30
2018-07-01T16:06:38.096Z,23.30
2018-07-01T16:09:09.334Z,23.10
2018-07-01T16:11:38.526Z,23.00
2018-07-01T16:14:07.719Z,22.90
2018-07-01T16:16:36.927Z,22.90
2018-07-01T16:19:06.349Z,22.90
2018-07-01T16:21:35.460Z,22.70
2018-07-01T16:24:04.767Z,22.80
2018-07-01T16:26:39.247Z,22.70
2018-07-01T16:31:37.104Z,22.90
2018-07-01T16:34:06.193Z,22.80
2018-07-01T16:36:35.349Z,22.80
2018-07-01T16:39:08.722Z,22.80
2018-07-01T16:41:37.916Z,22.70
2018-07-01T16:44:07.011Z,22.70
2018-07-01T16:46:36.119Z,22.60
2018-07-01T16:49:05.387Z,22.50
2018-07-01T16:56:32.131Z,22.40
2018-07-01T16:59:01.318Z,22.40
2018-07-01T17:01:30.697Z,22.40
2018-07-01T17:04:00.104Z,22.30
2018-07-01T17:06:30.249Z,22.30
2018-07-01T17:08:59.454Z,22.40
2018-07-01T17:11:28.595Z,22.20
2018-07-01T17:13:57.749Z,22.00
2018-07-01T17:16:27.301Z,21.90
2018-07-01T17:21:25.278Z,21.80
2018-07-01T17:23:54.503Z,21.90
2018-07-01T17:26:23.655Z,21.90
2018-07-01T17:28:52.851Z,21.90
2018-07-01T17:31:27.387Z,21.80
2018-07-01T17:33:56.593Z,21.80
2018-07-01T17:36:25.712Z,21.70
2018-07-01T17:38:54.851Z,21.80
2018-07-01T17:41:24.422Z,21.70
2018-07-01T17:43:53.571Z,21.60
2018-07-01T17:46:22.968Z,21.60
2018-07-01T17:48:52.280Z,21.60
2018-07-01T17:51:21.676Z,21.60
2018-07-01T17:53:55.311Z,21.50
2018-07-01T17:56:24.928Z,21.50
2018-07-01T17:58:54.840Z,21.60
2018-07-01T18:01:24.035Z,21.40
2018-07-01T18:03:53.273Z,21.40
2018-07-01T18:06:22.464Z,21.30
2018-07-01T18:08:52.212Z,21.20
2018-07-01T18:11:21.476Z,21.20
2018-07-01T18:13:50.621Z,21.20
2018-07-01T18:16:19.850Z,21.20
2018-07-01T18:18:49.262Z,21.00
2018-07-01T18:24:19.501Z,21.00
2018-07-01T18:26:19.181Z,20.90
2018-07-01T18:31:17.301Z,20.80
2018-07-01T18:33:46.511Z,20.80
2018-07-01T18:36:16.395Z,20.80
2018-07-01T18:41:14.434Z,20.80
2018-07-01T18:43:44.461Z,20.70
2018-07-01T18:46:14.788Z,20.70
2018-07-01T18:48:44.586Z,20.60
2018-07-01T18:53:44.280Z,20.60
2018-07-01T18:56:13.823Z,20.50
2018-07-01T19:01:12.194Z,20.50
2018-07-01T19:03:41.530Z,20.50
2018-07-01T19:06:10.841Z,20.40
2018-07-01T19:08:40.148Z,20.30
2018-07-01T19:11:09.624Z,20.30
2018-07-01T19:13:39.157Z,20.20
2018-07-01T19:16:08.407Z,20.10
2018-07-01T19:18:37.854Z,20.00
2018-07-01T19:23:38.583Z,19.80
2018-07-01T19:26:08.297Z,19.70
2018-07-01T19:28:38.018Z,19.70
2018-07-01T19:31:08.340Z,19.60
2018-07-01T19:33:38.470Z,19.50
2018-07-01T19:36:08.439Z,19.50
2018-07-01T19:38:38.612Z,19.40
2018-07-01T19:41:07.977Z,19.30
2018-07-01T19:43:38.142Z,19.20
2018-07-01T19:46:07.787Z,19.10
2018-07-01T19:48:37.266Z,19.10
2018-07-01T19:51:06.614Z,19.00
2018-07-01T19:53:35.819Z,18.90
2018-07-01T19:56:05.764Z,18.90
2018-07-01T19:58:35.026Z,18.80
2018-07-01T20:01:04.314Z,18.80
2018-07-01T20:03:34.949Z,18.70
2018-07-01T20:08:34.764Z,18.60
2018-07-01T20:11:04.172Z,18.60
2018-07-01T20:13:33.692Z,18.50
2018-07-01T20:16:03.096Z,18.40
2018-07-01T20:18:32.551Z,18.30
2018-07-01T20:21:03.357Z,18.30
2018-07-01T20:23:33.023Z,18.30
2018-07-01T20:26:02.921Z,18.20
2018-07-01T20:28:32.280Z,18.20
2018-07-01T20:31:01.890Z,18.10
2018-07-01T20:33:31.134Z,18.00
2018-07-01T20:36:00.391Z,18.00
2018-07-01T20:38:29.879Z,17.90
2018-07-01T20:40:59.187Z,17.90
2018-07-01T20:43:28.788Z,17.90
2018-07-01T20:45:58.524Z,17.80
2018-07-01T20:48:27.696Z,17.80
2018-07-01T20:50:56.941Z,17.80
2018-07-01T20:53:26.063Z,17.80
2018-07-01T20:55:55.212Z,17.70
2018-07-01T20:58:24.386Z,17.70
2018-07-01T21:03:22.449Z,17.60
2018-07-01T21:05:51.736Z,17.60
2018-07-01T21:08:20.956Z,17.50
2018-07-01T21:10:50.132Z,17.50
2018-07-01T21:13:19.277Z,17.50
2018-07-01T21:15:48.385Z,17.40
2018-07-01T21:18:18.465Z,17.40
2018-07-01T21:20:47.675Z,17.40
2018-07-01T21:25:45.444Z,17.30
2018-07-01T21:28:14.449Z,17.30
2018-07-01T21:30:43.411Z,17.30
2018-07-01T21:33:12.386Z,17.20
2018-07-01T21:35:41.422Z,17.10
2018-07-01T21:38:10.441Z,17.10
2018-07-01T21:40:39.660Z,17.10
2018-07-01T21:43:08.631Z,17.10
2018-07-01T21:45:37.656Z,17.00
2018-07-01T21:48:06.660Z,17.00
2018-07-01T21:50:35.773Z,17.00
2018-07-01T21:53:04.804Z,16.90
2018-07-01T22:00:32.208Z,16.80
2018-07-01T22:03:03.072Z,16.80
2018-07-01T22:08:01.812Z,16.60
2018-07-01T22:10:42.191Z,16.50
2018-07-01T22:13:23.044Z,16.50
2018-07-01T22:16:03.543Z,16.40
2018-07-01T22:18:32.832Z,16.30
2018-07-01T22:21:02.150Z,16.30
2018-07-01T22:25:59.887Z,16.20
2018-07-01T22:28:28.953Z,16.10
2018-07-01T22:30:57.997Z,16.10
2018-07-01T22:33:26.972Z,16.00
2018-07-01T22:35:56.060Z,16.00
2018-07-01T22:38:25.168Z,16.00
2018-07-01T22:40:54.178Z,15.90
2018-07-01T22:43:23.416Z,15.90
2018-07-01T22:45:52.484Z,15.90
2018-07-01T22:48:21.467Z,15.80
2018-07-01T22:50:50.434Z,15.80
2018-07-01T22:55:48.171Z,15.70
2018-07-01T22:58:17.134Z,15.70
2018-07-01T23:00:46.120Z,15.70
2018-07-01T23:03:17.904Z,15.60
2018-07-01T23:05:47.023Z,15.50
2018-07-01T23:08:16.055Z,15.60
2018-07-01T23:10:45.053Z,15.50
2018-07-01T23:13:14.031Z,15.50
2018-07-01T23:15:43.149Z,15.50
2018-07-01T23:18:12.164Z,15.40
2018-07-01T23:20:41.204Z,15.40
2018-07-01T23:23:10.344Z,15.40
2018-07-01T23:28:08.174Z,15.30
2018-07-01T23:30:37.267Z,15.30
2018-07-01T23:33:06.315Z,15.20
2018-07-01T23:35:36.267Z,15.20
2018-07-01T23:38:05.472Z,15.10
2018-07-01T23:40:34.568Z,15.10
2018-07-01T23:43:03.569Z,15.10
2018-07-01T23:45:32.514Z,15.00
2018-07-01T23:48:01.505Z,15.00
2018-07-01T23:50:30.474Z,15.00
2018-07-01T23:52:59.438Z,15.00
2018-07-01T23:57:57.719Z,14.90
